Pagrindinis puslapis
METAR-TAF:

METAR-TAF

Oro uostai :

Juveskiulė, Suomija

platuma: 62-24N, ilguma: 025-41E, Aukštis: 141 m

Dabartinis oras

Ataskaita buvo paskelbta 34 minutes, ne 02:50 UTC
Vėjas 5 kt iš Vakarų
Temperatūra 11°C
Drėgmė 100%
Slėgis 1014 hPa
Matomumas 10 km arba daugiau
Su prošvaistėmis ne aukštis 900 ft

METAR: EFJY 240250Z AUTO 26005KT 9999 BKN009 11/11 Q1014

Laikas: 06:24 (03:24 UTC)

Prognozė

Ataskaita buvo paskelbta 57 minutes, ne 02:27 UTC
Prognozė galioja nuo 24 metu 03 UTC su 25 metu 03 UTC
Vėjas 5 kt iš Vakarų
Matomumas 10 km arba daugiau
Su prošvaistėmis ne aukštis 2000 ft
Su prošvaistėmis ne aukštis 4000 ft
Tikimybė 40%
nuo 24 metu 03 UTC su 24 metu 05 UTC
Matomumas: 5000 m
Su prošvaistėmis ne aukštis 800 ft
rūkana

TAF: EFJY 240227Z 2403/2503 27005KT 9999 BKN020 BKN040 PROB40 2403/2405 5000 BR BKN008

Orai ataskaitas ir orų prognozės (METAR, TAF).

turimą stotys yra geltonos ir raudonos taškus žemėlapyje.

Perkelti pele per norėdami pamatyti stoties vardą.

Tada spustelėkite, norėdami matyti oro stebėjimo ir prognozės.

Norėdami pakeisti žemėlapį: spustelėkite ant žalios mygtukų su juodo kryžiaus žemyn,; žalią mygtuką su brūkšneliu, jei norite nutolinti; arba žalių rodyklių gretimoms žemėlapius.


METAR-TAF: